KTEXKCNY

Guest
Details From KTEX - Telluride Rgnl
To KCNY - CANYONLANDS FLD
Flight Number -
Tags generated
Created
Modified
Stats Distance 99 nm / 184 km
Max Altitude 0 ft / 0 m
Waypoints 2
Social Downloads 0
Likes 0
Share VATSIM

Download

Looking for another format? Having issues loading an existing format? Contact us
Advertisement - Login to hide

Notes

Basic altitude profile: - Ascent Rate: 1300ft/min - Ascent Speed: 120kts - Cruise Altitude: 35000ft - Cruise Speed: 160kts - Descent Rate: 1500ft/min - Descent Speed: 250kts Options: - Use NATs: no - Use PACOTS: no - Use low airways: no - Use high airways: no

Route

KTEX KCNY

ID Type Via Altitude Latitude Longitude Leg Dist Tot Dist Heading (true) Name
O KTEX APT - 0 ft / 0 m 37.95381˚ -107.90874˚ - 0 nm - Telluride Rgnl
O KCNY APT - 0 ft / 0 m 38.75496˚ -109.75484˚ 99 nm 99 nm 300° / 298° CANYONLANDS FLD

Altitude Profile

Advertisement - Login to hide

KTEX

Details ICAO KTEX (TEX)
Name Telluride Rgnl
Region United States
Timezone America/Denver (UTC-6.0)
Stats Elevation 9,078 ft / 2,767 m (AMSL)
Location 37.953812° -107.908742°
Runways 1
Magnetic Variation 9.375° E

METAR

KTEX 270535Z AUTO 18010G19KT 150V210 10SM SCT110 16/M13 A3013 RMK AO2 T01611135

Decode

TAF

KTEX 262320Z 2700/2724 15017G25KT P6SM SCT250 FM270500 18009KT P6SM SCT200 FM270700 18008KT P6SM FEW250 FM271600 18007KT P6SM SKC

Decode

Departure Runways

ID Width Length Bearing (true) Bearing (mag) Surface Threshold Offset Overrun Length
09 98 ft / 30 m 7,095 ft / 2,163 m 104.96° 95.59° Asphalt 200 ft / 61 m 400 ft / 122 m
27 98 ft / 30 m 7,095 ft / 2,163 m 284.98° 275.61° Asphalt 200 ft / 61 m 400 ft / 122 m

KCNY

Details ICAO KCNY (CNY)
Name CANYONLANDS FLD
Region United States
Timezone America/Denver (UTC-6.0)
Stats Elevation 4,555 ft / 1,388 m (AMSL)
Location 38.754957° -109.754845°
Runways 1
Magnetic Variation 10.249° E

METAR

KCNY 270453Z AUTO 22009KT 10SM CLR 23/M14 A2970 RMK AO2 SLP993 T02331144

Decode

TAF

TAF KCNY 262320Z 2700/2724 18020G30KT P6SM SCT250 FM270300 19012KT P6SM SCT250 FM270500 20009KT P6SM FEW250 FM272300 23010KT P6SM FEW200

Decode

Destination Runways

ID Width Length Bearing (true) Bearing (mag) Surface Threshold Offset Overrun Length
03 75 ft / 23 m 7,099 ft / 2,164 m 39.77° 29.52° Asphalt 0 ft / 0 m 0 ft / 0 m
21 75 ft / 23 m 7,099 ft / 2,164 m 219.78° 209.53° Asphalt 0 ft / 0 m 0 ft / 0 m